createdAt,value
2018-11-23T00:00:00.419Z,39.17
2018-11-23T00:01:06.588Z,33.73
2018-11-23T00:02:12.064Z,36.87
2018-11-23T00:03:17.563Z,35.90
2018-11-23T00:04:23.097Z,36.20
2018-11-23T00:05:28.516Z,31.17
2018-11-23T00:06:34.074Z,35.33
2018-11-23T00:07:39.924Z,37.60
2018-11-23T00:08:45.594Z,38.47
2018-11-23T00:09:51.123Z,36.73
2018-11-23T00:10:56.582Z,32.50
2018-11-23T00:12:02.085Z,35.47
2018-11-23T00:13:07.575Z,36.50
2018-11-23T00:14:13.094Z,34.17
2018-11-23T00:15:19.879Z,37.97
2018-11-23T00:16:25.357Z,42.93
2018-11-23T00:17:30.885Z,39.77
2018-11-23T00:18:36.330Z,34.70
2018-11-23T00:19:41.965Z,33.87
2018-11-23T00:20:47.362Z,44.60
2018-11-23T00:21:52.816Z,39.13
2018-11-23T00:22:58.351Z,38.10
2018-11-23T00:24:03.805Z,42.10
2018-11-23T00:25:12.214Z,37.60
2018-11-23T00:26:17.698Z,35.97
2018-11-23T00:27:23.146Z,38.90
2018-11-23T00:28:28.582Z,39.27
2018-11-23T00:29:33.987Z,41.73
2018-11-23T00:30:39.556Z,37.10
2018-11-23T00:31:45.141Z,41.37
2018-11-23T00:32:51.230Z,36.60
2018-11-23T00:33:56.695Z,34.07
2018-11-23T00:35:02.114Z,34.63
2018-11-23T00:36:07.842Z,36.37
2018-11-23T00:37:13.364Z,34.40
2018-11-23T00:38:18.805Z,36.47
2018-11-23T00:39:24.251Z,32.37
2018-11-23T00:40:30.917Z,34.00
2018-11-23T00:41:36.430Z,43.23
2018-11-23T00:42:42.493Z,35.07
2018-11-23T00:43:47.914Z,38.27
2018-11-23T00:44:53.394Z,32.10
2018-11-23T00:45:58.925Z,34.60
2018-11-23T00:47:04.387Z,35.83
2018-11-23T00:48:09.856Z,35.00
2018-11-23T00:49:15.335Z,32.63
2018-11-23T00:50:21.894Z,34.77
2018-11-23T00:51:27.470Z,39.23
2018-11-23T00:52:32.869Z,35.73
2018-11-23T00:53:38.310Z,35.63
2018-11-23T00:54:43.765Z,37.37
2018-11-23T00:55:49.226Z,33.93
2018-11-23T00:56:54.721Z,34.07
2018-11-23T00:58:00.139Z,44.47
2018-11-23T00:59:05.746Z,37.77
2018-11-23T01:00:17.653Z,35.43
2018-11-23T01:01:23.089Z,36.67
2018-11-23T01:02:28.675Z,31.57
2018-11-23T01:03:34.199Z,33.80
2018-11-23T01:04:39.593Z,35.50
2018-11-23T01:05:45.002Z,34.47
2018-11-23T01:06:50.522Z,36.57
2018-11-23T01:07:56.110Z,37.50
2018-11-23T01:09:01.582Z,34.30
2018-11-23T01:10:09.919Z,40.03
2018-11-23T01:11:15.411Z,45.40
2018-11-23T01:12:20.839Z,40.60
2018-11-23T01:13:26.344Z,35.37
2018-11-23T01:14:31.881Z,42.23
2018-11-23T01:15:37.278Z,36.10
2018-11-23T01:16:42.678Z,37.97
2018-11-23T01:17:48.218Z,32.77
2018-11-23T01:18:53.790Z,42.13
2018-11-23T01:19:59.322Z,38.13
2018-11-23T01:21:04.860Z,41.47
2018-11-23T01:22:10.338Z,38.13
2018-11-23T01:23:15.723Z,36.53
2018-11-23T01:24:21.190Z,37.57
2018-11-23T01:25:27.727Z,36.40
2018-11-23T01:26:33.187Z,33.83
2018-11-23T01:27:39.166Z,43.60
2018-11-23T01:28:44.618Z,39.27
2018-11-23T01:29:50.086Z,38.80
2018-11-23T01:30:55.670Z,37.73
2018-11-23T01:32:01.119Z,39.33
2018-11-23T01:33:06.610Z,41.20
2018-11-23T01:34:12.042Z,34.10
2018-11-23T01:35:17.556Z,38.90
2018-11-23T01:36:23.014Z,40.83
2018-11-23T01:37:28.478Z,38.53
2018-11-23T01:38:33.942Z,35.53
2018-11-23T01:39:39.370Z,40.63
2018-11-23T01:40:44.848Z,33.90
2018-11-23T01:41:50.327Z,41.27
2018-11-23T01:42:56.315Z,38.43
2018-11-23T01:44:01.895Z,35.40
2018-11-23T01:45:09.049Z,30.30
2018-11-23T01:46:14.546Z,37.80
2018-11-23T01:47:21.876Z,37.30
2018-11-23T01:48:27.337Z,37.43
2018-11-23T01:49:32.782Z,34.43
2018-11-23T01:50:38.267Z,48.27
2018-11-23T01:51:43.669Z,45.47
2018-11-23T01:52:49.989Z,39.10
2018-11-23T01:53:55.435Z,41.10
2018-11-23T01:55:00.930Z,44.13
2018-11-23T01:56:06.456Z,32.93
2018-11-23T01:57:11.886Z,38.33
2018-11-23T01:58:17.296Z,36.47
2018-11-23T01:59:22.759Z,37.03
2018-11-23T02:00:29.218Z,39.90
2018-11-23T02:01:34.680Z,36.13
2018-11-23T02:02:40.149Z,37.80
2018-11-23T02:03:45.609Z,38.80
2018-11-23T02:04:51.132Z,35.47
2018-11-23T02:05:56.620Z,39.83
2018-11-23T02:07:02.103Z,37.07
2018-11-23T02:08:08.346Z,37.33
2018-11-23T02:09:13.830Z,42.17
2018-11-23T02:10:19.818Z,39.70
2018-11-23T02:11:25.239Z,35.70
2018-11-23T02:12:30.655Z,37.50
2018-11-23T02:13:36.132Z,36.23
2018-11-23T02:14:41.940Z,37.33
2018-11-23T02:15:47.416Z,39.30
2018-11-23T02:16:52.847Z,30.63
2018-11-23T02:17:58.230Z,40.67
2018-11-23T02:19:03.648Z,37.83
2018-11-23T02:20:14.754Z,36.70
2018-11-23T02:21:20.249Z,43.30
2018-11-23T02:22:26.574Z,38.40
2018-11-23T02:23:38.582Z,40.77
2018-11-23T02:24:44.035Z,35.60
2018-11-23T02:25:49.550Z,40.53
2018-11-23T02:26:55.042Z,43.73
2018-11-23T02:28:00.680Z,41.13
2018-11-23T02:29:06.371Z,39.90
2018-11-23T02:30:16.863Z,33.40
2018-11-23T02:31:27.482Z,38.77
2018-11-23T02:32:32.928Z,39.13
2018-11-23T02:33:40.778Z,37.00
2018-11-23T02:34:46.210Z,37.77
2018-11-23T02:35:51.774Z,35.50
2018-11-23T02:36:57.208Z,39.03
2018-11-23T02:38:02.627Z,36.80
2018-11-23T02:39:09.470Z,37.33
2018-11-23T02:40:16.239Z,43.77
2018-11-23T02:41:21.720Z,35.97
2018-11-23T02:42:27.223Z,43.27
2018-11-23T02:43:32.671Z,44.50
2018-11-23T02:44:38.123Z,40.93
2018-11-23T02:45:43.632Z,41.53
2018-11-23T02:46:49.100Z,39.57
2018-11-23T02:47:54.611Z,37.80
2018-11-23T02:49:00.056Z,39.47
2018-11-23T02:50:06.159Z,44.10
2018-11-23T02:51:11.615Z,40.40
2018-11-23T02:52:17.056Z,38.37
2018-11-23T02:53:22.514Z,41.20
2018-11-23T02:54:27.944Z,38.40
2018-11-23T02:55:33.392Z,39.30
2018-11-23T02:56:45.122Z,43.63
2018-11-23T02:57:50.603Z,38.97
2018-11-23T02:58:56.104Z,43.58
2018-11-23T03:00:01.557Z,47.07
2018-11-23T03:01:06.979Z,43.97
2018-11-23T03:02:12.408Z,40.90
2018-11-23T03:03:17.850Z,39.20
2018-11-23T03:04:23.326Z,41.60
2018-11-23T03:05:28.829Z,43.63
2018-11-23T03:06:34.286Z,47.53
2018-11-23T03:07:39.858Z,40.97
2018-11-23T03:08:45.395Z,45.80
2018-11-23T03:09:50.858Z,40.27
2018-11-23T03:10:56.335Z,39.77
2018-11-23T03:12:01.832Z,45.10
2018-11-23T03:13:07.242Z,41.67
2018-11-23T03:14:12.704Z,39.13
2018-11-23T03:15:19.902Z,33.80
2018-11-23T03:16:25.341Z,41.97
2018-11-23T03:17:30.797Z,46.00
2018-11-23T03:18:36.275Z,46.20
2018-11-23T03:19:41.753Z,41.47
2018-11-23T03:20:47.190Z,43.93
2018-11-23T03:21:52.746Z,43.60
2018-11-23T03:22:58.190Z,42.50
2018-11-23T03:24:03.642Z,43.50
2018-11-23T03:25:10.488Z,44.47
2018-11-23T03:26:15.900Z,40.37
2018-11-23T03:27:21.378Z,42.33
2018-11-23T03:28:26.850Z,43.67
2018-11-23T03:29:32.326Z,32.97
2018-11-23T03:30:37.786Z,45.23
2018-11-23T03:31:43.247Z,37.40
2018-11-23T03:32:49.458Z,38.27
2018-11-23T03:33:55.521Z,39.67
2018-11-23T03:35:01.049Z,42.63
2018-11-23T03:36:06.707Z,45.23
2018-11-23T03:37:12.181Z,40.40
2018-11-23T03:38:17.643Z,37.90
2018-11-23T03:39:23.077Z,45.40
2018-11-23T03:40:28.655Z,44.97
2018-11-23T03:41:34.141Z,42.10
2018-11-23T03:42:39.543Z,43.63
2018-11-23T03:43:45.122Z,40.20
2018-11-23T03:44:50.558Z,48.47
2018-11-23T03:45:56.030Z,42.77
2018-11-23T03:47:01.512Z,38.70
2018-11-23T03:48:07.150Z,42.20
2018-11-23T03:49:12.634Z,46.13
2018-11-23T03:50:18.527Z,46.87
2018-11-23T03:51:24.033Z,48.50
2018-11-23T03:52:29.418Z,42.23
2018-11-23T03:53:34.881Z,41.70
2018-11-23T03:54:40.352Z,43.40
2018-11-23T03:55:45.795Z,41.90
2018-11-23T03:56:51.233Z,51.10
2018-11-23T03:57:56.718Z,40.07
2018-11-23T03:59:02.160Z,45.60
2018-11-23T04:00:20.267Z,45.53
2018-11-23T04:01:25.757Z,43.40
2018-11-23T04:02:31.291Z,49.53
2018-11-23T04:03:36.767Z,48.93
2018-11-23T04:04:42.262Z,48.07
2018-11-23T04:05:47.680Z,48.60
2018-11-23T04:06:53.124Z,41.13
2018-11-23T04:07:58.939Z,39.73
2018-11-23T04:09:05.498Z,43.03
2018-11-23T04:10:12.653Z,44.23
2018-11-23T04:11:18.059Z,45.67
2018-11-23T04:12:23.481Z,47.90
2018-11-23T04:13:28.928Z,43.13
2018-11-23T04:14:34.372Z,46.37
2018-11-23T04:15:39.855Z,47.03
2018-11-23T04:16:45.259Z,42.10
2018-11-23T04:17:50.706Z,51.00
2018-11-23T04:18:56.137Z,46.75
2018-11-23T04:20:01.609Z,45.97
2018-11-23T04:21:07.326Z,39.50
2018-11-23T04:22:12.783Z,44.40
2018-11-23T04:23:18.242Z,39.63
2018-11-23T04:24:23.704Z,49.07
2018-11-23T04:25:29.154Z,46.20
2018-11-23T04:26:34.559Z,45.20
2018-11-23T04:27:40.250Z,46.30
2018-11-23T04:28:45.843Z,40.50
2018-11-23T04:29:51.269Z,41.40
2018-11-23T04:30:57.019Z,49.10
2018-11-23T04:32:02.450Z,49.90
2018-11-23T04:33:07.934Z,46.77
2018-11-23T04:34:13.369Z,45.00
2018-11-23T04:35:19.995Z,45.07
2018-11-23T04:36:25.446Z,51.07
2018-11-23T04:37:30.895Z,47.60
2018-11-23T04:38:36.342Z,47.60
2018-11-23T04:39:41.825Z,50.23
2018-11-23T04:40:47.378Z,49.47
2018-11-23T04:41:52.890Z,49.50
2018-11-23T04:42:58.495Z,44.58
2018-11-23T04:44:03.942Z,52.17
2018-11-23T04:45:09.886Z,51.10
2018-11-23T04:46:15.426Z,44.73
2018-11-23T04:47:20.820Z,46.30
2018-11-23T04:48:26.251Z,47.10
2018-11-23T04:49:31.713Z,45.30
2018-11-23T04:50:37.159Z,43.63
2018-11-23T04:51:42.714Z,47.10
2018-11-23T04:52:48.102Z,51.93
2018-11-23T04:53:53.704Z,52.43
2018-11-23T04:54:59.199Z,47.33
2018-11-23T04:56:04.635Z,51.60
2018-11-23T04:57:10.131Z,46.40
2018-11-23T04:58:15.570Z,47.90
2018-11-23T04:59:21.118Z,52.40
2018-11-23T05:00:26.684Z,47.73
2018-11-23T05:01:32.129Z,48.20
2018-11-23T05:02:37.580Z,41.30
2018-11-23T05:03:43.013Z,44.70
2018-11-23T05:04:48.428Z,50.93
2018-11-23T05:05:53.930Z,52.13
2018-11-23T05:06:59.346Z,45.83
2018-11-23T05:08:04.794Z,42.27
2018-11-23T05:09:11.142Z,42.90
2018-11-23T05:10:17.504Z,45.77
2018-11-23T05:11:22.933Z,46.30
2018-11-23T05:12:28.403Z,53.37
2018-11-23T05:13:33.850Z,46.57
2018-11-23T05:14:39.314Z,47.70
2018-11-23T05:15:44.726Z,55.00
2018-11-23T05:16:50.210Z,58.93
2018-11-23T05:17:55.629Z,84.53
2018-11-23T05:19:01.167Z,81.87
2018-11-23T05:20:07.806Z,61.97
2018-11-23T05:21:13.263Z,46.73
2018-11-23T05:22:18.680Z,51.60
2018-11-23T05:23:24.138Z,52.27
2018-11-23T05:24:29.597Z,44.07
2018-11-23T05:25:35.093Z,48.47
2018-11-23T05:26:40.498Z,42.33
2018-11-23T05:27:46.066Z,52.63
2018-11-23T05:28:51.494Z,50.67
2018-11-23T05:29:57.175Z,50.50
2018-11-23T05:31:02.641Z,48.03
2018-11-23T05:32:08.143Z,51.50
2018-11-23T05:33:13.638Z,48.53
2018-11-23T05:34:19.074Z,47.50
2018-11-23T05:35:24.667Z,50.23
2018-11-23T05:36:30.137Z,52.73
2018-11-23T05:37:35.569Z,45.60
2018-11-23T05:38:40.980Z,50.43
2018-11-23T05:39:46.471Z,47.70
2018-11-23T05:40:51.924Z,45.97
2018-11-23T05:41:57.373Z,48.10
2018-11-23T05:43:04.415Z,51.20
2018-11-23T05:44:08.408Z,51.30
2018-11-23T05:45:15.968Z,43.53
2018-11-23T05:46:21.413Z,47.23
2018-11-23T05:47:27.054Z,48.07
2018-11-23T05:48:32.546Z,45.20
2018-11-23T05:49:37.967Z,47.57
2018-11-23T05:50:43.414Z,44.03
2018-11-23T05:51:48.853Z,47.80
2018-11-23T05:52:54.514Z,49.00
2018-11-23T05:54:00.039Z,52.23
2018-11-23T05:55:05.804Z,49.30
2018-11-23T05:56:11.230Z,45.70
2018-11-23T05:57:16.637Z,42.57
2018-11-23T05:58:22.065Z,44.07
2018-11-23T05:59:27.618Z,46.40
2018-11-23T06:00:33.672Z,51.37
2018-11-23T06:01:39.096Z,50.80
2018-11-23T06:02:44.552Z,49.73
2018-11-23T06:03:49.978Z,56.03
2018-11-23T06:04:55.474Z,67.90
2018-11-23T06:06:00.879Z,91.87
2018-11-23T06:07:06.606Z,64.03
2018-11-23T06:08:12.066Z,58.50
2018-11-23T06:09:17.507Z,43.43
2018-11-23T06:10:23.446Z,43.47
2018-11-23T06:11:28.999Z,55.25
2018-11-23T06:12:34.410Z,52.20
2018-11-23T06:13:39.859Z,49.47
2018-11-23T06:14:45.269Z,47.97
2018-11-23T06:15:50.742Z,69.53
2018-11-23T06:16:56.278Z,58.57
2018-11-23T06:18:01.882Z,69.37
2018-11-23T06:19:07.418Z,54.27
2018-11-23T06:20:15.375Z,51.27
2018-11-23T06:21:20.904Z,43.77
2018-11-23T06:22:26.295Z,50.90
2018-11-23T06:23:31.783Z,55.67
2018-11-23T06:24:37.209Z,45.53
2018-11-23T06:25:46.997Z,52.37
2018-11-23T06:26:52.541Z,43.80
2018-11-23T06:27:58.024Z,46.75
2018-11-23T06:29:03.494Z,52.90
2018-11-23T06:30:11.583Z,45.60
2018-11-23T06:31:17.029Z,47.33
2018-11-23T06:32:39.462Z,48.47
2018-11-23T06:33:46.149Z,51.63
2018-11-23T06:34:51.542Z,58.70
2018-11-23T06:35:57.027Z,56.23
2018-11-23T06:37:02.486Z,56.37
2018-11-23T06:38:07.941Z,59.93
2018-11-23T06:39:13.419Z,46.10
2018-11-23T06:40:19.499Z,58.67
2018-11-23T06:41:25.074Z,51.05
2018-11-23T06:42:30.506Z,50.20
2018-11-23T06:43:35.984Z,52.03
2018-11-23T06:44:41.426Z,55.30
2018-11-23T06:45:46.915Z,48.42
2018-11-23T06:46:52.452Z,56.87
2018-11-23T06:47:57.895Z,56.10
2018-11-23T06:49:03.380Z,57.00
2018-11-23T06:50:12.943Z,47.10
2018-11-23T06:51:18.373Z,64.27
2018-11-23T06:52:23.822Z,55.43
2018-11-23T06:53:29.221Z,48.33
2018-11-23T06:54:34.646Z,54.30
2018-11-23T06:55:40.102Z,54.77
2018-11-23T06:56:45.830Z,53.30
2018-11-23T06:57:51.217Z,54.07
2018-11-23T06:58:56.653Z,50.25
2018-11-23T07:00:02.065Z,49.97
2018-11-23T07:01:07.622Z,48.33
2018-11-23T07:02:13.113Z,48.07
2018-11-23T07:03:18.663Z,49.27
2018-11-23T07:04:24.090Z,53.83
2018-11-23T07:05:29.574Z,46.80
2018-11-23T07:06:34.990Z,55.27
2018-11-23T07:07:40.416Z,48.00
2018-11-23T07:08:52.271Z,59.00
2018-11-23T07:09:51.354Z,52.70
2018-11-23T07:11:01.190Z,56.93
2018-11-23T07:12:06.690Z,54.17
2018-11-23T07:13:12.119Z,60.60
2018-11-23T07:14:17.601Z,53.00
2018-11-23T07:15:23.067Z,52.90
2018-11-23T07:16:28.599Z,57.90
2018-11-23T07:17:34.022Z,47.73
2018-11-23T07:18:39.459Z,59.20
2018-11-23T07:19:44.927Z,54.97
2018-11-23T07:20:50.343Z,57.53
2018-11-23T07:21:55.863Z,62.97
2018-11-23T07:23:01.329Z,59.38
2018-11-23T07:24:07.255Z,47.50
2018-11-23T07:25:13.827Z,55.40
2018-11-23T07:26:19.274Z,54.70
2018-11-23T07:27:24.791Z,59.93
2018-11-23T07:28:30.293Z,61.25
2018-11-23T07:29:35.711Z,53.07
2018-11-23T07:30:41.232Z,65.53
2018-11-23T07:31:46.662Z,60.93
2018-11-23T07:32:52.307Z,52.97
2018-11-23T07:33:57.774Z,57.97
2018-11-23T07:35:03.366Z,49.70
2018-11-23T07:36:11.274Z,57.50
2018-11-23T07:37:17.026Z,46.50
2018-11-23T07:38:22.658Z,55.97
2018-11-23T07:39:45.075Z,57.30
2018-11-23T07:41:07.330Z,52.17
2018-11-23T07:42:28.610Z,53.65
2018-11-23T07:43:34.070Z,58.38
2018-11-23T07:44:39.567Z,56.20
2018-11-23T07:45:45.003Z,58.13
2018-11-23T07:46:50.458Z,56.33
2018-11-23T07:47:55.887Z,48.95
2018-11-23T07:49:01.451Z,61.30
2018-11-23T07:50:08.830Z,51.63
2018-11-23T07:51:14.270Z,55.83
2018-11-23T07:52:19.690Z,64.57
2018-11-23T07:53:25.129Z,61.17
2018-11-23T07:54:30.618Z,58.80
2018-11-23T07:55:36.085Z,64.37
2018-11-23T07:56:41.526Z,57.05
2018-11-23T07:57:47.006Z,62.53
2018-11-23T07:58:52.455Z,53.87
2018-11-23T07:59:57.997Z,54.73
2018-11-23T08:01:03.471Z,55.90
2018-11-23T08:02:10.934Z,49.65
2018-11-23T08:03:16.419Z,55.80
2018-11-23T08:04:21.915Z,58.30
2018-11-23T08:05:27.580Z,50.63
2018-11-23T08:06:33.083Z,55.73
2018-11-23T08:07:38.547Z,54.10
2018-11-23T08:08:44.031Z,57.75
2018-11-23T08:09:49.543Z,53.35
2018-11-23T08:10:54.043Z,42.90
2018-11-23T08:11:59.502Z,50.77
2018-11-23T08:13:04.994Z,46.70
2018-11-23T08:14:10.488Z,57.43
2018-11-23T08:15:19.130Z,57.85
2018-11-23T08:16:24.596Z,58.60
2018-11-23T08:17:30.064Z,56.80
2018-11-23T08:18:35.627Z,55.63
2018-11-23T08:19:47.237Z,54.38
2018-11-23T08:20:46.535Z,57.17
2018-11-23T08:21:52.022Z,57.47
2018-11-23T08:22:57.505Z,50.67
2018-11-23T08:24:03.015Z,60.45
2018-11-23T08:25:10.166Z,50.97
2018-11-23T08:26:15.563Z,53.43
2018-11-23T08:27:20.987Z,56.53
2018-11-23T08:28:26.378Z,46.75
2018-11-23T08:29:31.850Z,50.47
2018-11-23T08:30:37.548Z,54.40
2018-11-23T08:31:42.950Z,56.20
2018-11-23T08:32:48.487Z,56.27
2018-11-23T08:33:53.951Z,56.20
2018-11-23T08:34:59.446Z,50.47
2018-11-23T08:36:04.992Z,47.33
2018-11-23T08:37:10.430Z,58.53
2018-11-23T08:38:15.863Z,47.85
2018-11-23T08:39:21.294Z,49.60
2018-11-23T08:40:27.568Z,51.40
2018-11-23T08:41:33.076Z,51.73
2018-11-23T08:42:38.553Z,56.63
2018-11-23T08:43:44.000Z,53.92
2018-11-23T08:44:49.415Z,53.55
2018-11-23T08:45:54.846Z,52.60
2018-11-23T08:47:00.395Z,54.20
2018-11-23T08:48:05.857Z,51.67
2018-11-23T08:49:11.349Z,50.75
2018-11-23T08:50:22.015Z,56.80
2018-11-23T08:51:27.477Z,46.33
2018-11-23T08:52:33.803Z,51.83
2018-11-23T08:53:39.237Z,45.75
2018-11-23T08:54:44.667Z,52.40
2018-11-23T08:55:50.100Z,50.67
2018-11-23T08:56:55.567Z,46.70
2018-11-23T08:58:01.002Z,54.87
2018-11-23T08:59:06.507Z,49.53
2018-11-23T09:00:25.174Z,46.03
2018-11-23T09:01:30.676Z,45.90
2018-11-23T09:02:36.120Z,47.40
2018-11-23T09:03:41.610Z,55.20
2018-11-23T09:04:47.180Z,48.30
2018-11-23T09:05:52.632Z,50.30
2018-11-23T09:06:58.038Z,46.93
2018-11-23T09:08:03.531Z,51.03
2018-11-23T09:09:11.254Z,52.73
2018-11-23T09:10:19.168Z,48.03
2018-11-23T09:11:24.598Z,47.90
2018-11-23T09:12:30.050Z,42.30
2018-11-23T09:13:35.454Z,50.87
2018-11-23T09:14:40.901Z,48.13
2018-11-23T09:15:46.382Z,45.73
2018-11-23T09:16:51.966Z,53.17
2018-11-23T09:17:57.458Z,48.37
2018-11-23T09:19:02.922Z,62.40
2018-11-23T09:20:10.342Z,49.77
2018-11-23T09:21:15.805Z,44.45
2018-11-23T09:22:23.526Z,52.27
2018-11-23T09:23:26.746Z,47.03
2018-11-23T09:24:32.220Z,48.60
2018-11-23T09:25:37.675Z,53.60
2018-11-23T09:26:43.110Z,51.47
2018-11-23T09:27:48.673Z,51.17
2018-11-23T09:28:54.173Z,46.73
2018-11-23T09:29:59.621Z,48.80
2018-11-23T09:31:05.147Z,47.33
2018-11-23T09:32:10.735Z,48.23
2018-11-23T09:33:16.294Z,45.37
2018-11-23T09:34:21.738Z,50.33
2018-11-23T09:35:27.903Z,47.93
2018-11-23T09:36:33.327Z,47.03
2018-11-23T09:37:39.759Z,49.00
2018-11-23T09:38:45.227Z,45.48
2018-11-23T09:39:50.690Z,46.30
2018-11-23T09:40:56.143Z,48.87
2018-11-23T09:42:01.638Z,46.70
2018-11-23T09:43:07.339Z,43.93
2018-11-23T09:44:12.782Z,44.13
2018-11-23T09:45:19.628Z,47.60
2018-11-23T09:46:25.105Z,41.60
2018-11-23T09:47:30.600Z,47.03
2018-11-23T09:48:36.171Z,45.67
2018-11-23T09:49:41.566Z,43.57
2018-11-23T09:50:47.097Z,44.13
2018-11-23T09:51:52.550Z,47.30
2018-11-23T09:52:59.339Z,41.27
2018-11-23T09:54:04.818Z,49.43
2018-11-23T09:55:10.385Z,43.93
2018-11-23T09:56:15.826Z,46.80
2018-11-23T09:57:21.288Z,45.87
2018-11-23T09:58:26.764Z,52.30
2018-11-23T09:59:32.222Z,46.17
2018-11-23T10:00:38.327Z,50.47
2018-11-23T10:01:43.799Z,46.23
2018-11-23T10:02:50.146Z,38.97
2018-11-23T10:03:55.550Z,38.67
2018-11-23T10:05:00.958Z,47.23
2018-11-23T10:06:06.512Z,43.37
2018-11-23T10:07:12.009Z,49.60
2018-11-23T10:08:17.396Z,44.67
2018-11-23T10:09:22.818Z,58.13
2018-11-23T10:10:29.066Z,51.03
2018-11-23T10:11:34.466Z,41.83
2018-11-23T10:12:40.019Z,43.80
2018-11-23T10:13:45.470Z,44.70
2018-11-23T10:14:50.888Z,43.13
2018-11-23T10:15:56.367Z,41.63
2018-11-23T10:17:01.842Z,39.00
2018-11-23T10:18:07.319Z,41.40
2018-11-23T10:19:24.027Z,46.00
2018-11-23T10:20:30.840Z,43.33
2018-11-23T10:21:36.270Z,40.47
2018-11-23T10:22:41.962Z,46.43
2018-11-23T10:23:47.363Z,41.07
2018-11-23T10:24:52.902Z,43.90
2018-11-23T10:25:58.341Z,46.43
2018-11-23T10:27:03.813Z,38.83
2018-11-23T10:28:09.259Z,47.10
2018-11-23T10:29:14.699Z,40.50
2018-11-23T10:30:24.598Z,45.33
2018-11-23T10:31:30.103Z,37.77
2018-11-23T10:32:35.529Z,40.80
2018-11-23T10:33:41.183Z,45.23
2018-11-23T10:34:46.639Z,46.27
2018-11-23T10:35:52.142Z,40.97
2018-11-23T10:36:57.667Z,38.83
2018-11-23T10:38:04.596Z,39.00
2018-11-23T10:39:10.013Z,43.83
2018-11-23T10:40:17.540Z,38.43
2018-11-23T10:41:22.996Z,46.13
2018-11-23T10:42:28.420Z,40.43
2018-11-23T10:43:33.950Z,41.97
2018-11-23T10:44:39.427Z,38.80
2018-11-23T10:45:44.856Z,36.40
2018-11-23T10:46:50.330Z,44.00
2018-11-23T10:47:56.614Z,46.93
2018-11-23T10:49:02.077Z,39.40
2018-11-23T10:50:11.927Z,42.80
2018-11-23T10:51:17.397Z,40.53
2018-11-23T10:52:22.800Z,43.90
2018-11-23T10:53:28.296Z,40.73
2018-11-23T10:54:33.853Z,39.93
2018-11-23T10:55:39.480Z,39.20
2018-11-23T10:56:44.921Z,39.10
2018-11-23T10:57:50.570Z,40.60
2018-11-23T10:58:56.048Z,39.60
2018-11-23T11:00:01.456Z,39.83
2018-11-23T11:01:12.251Z,40.30
2018-11-23T11:02:22.967Z,36.03
2018-11-23T11:03:35.397Z,43.43
2018-11-23T11:04:45.958Z,42.50
2018-11-23T11:05:57.513Z,36.80
2018-11-23T11:07:07.886Z,44.03
2018-11-23T11:08:13.333Z,40.10
2018-11-23T11:09:18.783Z,43.57
2018-11-23T11:10:24.223Z,44.20
2018-11-23T11:11:29.743Z,35.97
2018-11-23T11:12:35.323Z,41.90
2018-11-23T11:13:40.791Z,39.37
2018-11-23T11:14:46.280Z,42.03
2018-11-23T11:15:51.790Z,44.97
2018-11-23T11:16:57.255Z,41.37
2018-11-23T11:18:02.708Z,38.30
2018-11-23T11:19:08.484Z,39.57
2018-11-23T11:20:13.926Z,42.97
2018-11-23T11:21:19.391Z,38.30
2018-11-23T11:22:24.878Z,40.70
2018-11-23T11:23:30.335Z,44.20
2018-11-23T11:24:35.817Z,38.67
2018-11-23T11:25:41.255Z,41.67
2018-11-23T11:26:46.708Z,45.90
2018-11-23T11:27:52.206Z,33.83
2018-11-23T11:28:57.731Z,37.33
2018-11-23T11:30:03.252Z,36.50
2018-11-23T11:31:08.725Z,34.10
2018-11-23T11:32:14.119Z,37.03
2018-11-23T11:33:19.813Z,35.07
2018-11-23T11:34:25.482Z,39.20
2018-11-23T11:35:30.931Z,39.97
2018-11-23T11:36:36.386Z,38.00
2018-11-23T11:37:42.343Z,41.60
2018-11-23T11:38:47.918Z,40.73
2018-11-23T11:39:53.384Z,38.90
2018-11-23T11:40:58.835Z,37.10
2018-11-23T11:42:04.314Z,38.63
2018-11-23T11:43:09.756Z,40.50
2018-11-23T11:44:15.226Z,42.87
2018-11-23T11:45:20.732Z,36.37
2018-11-23T11:46:26.151Z,38.73
2018-11-23T11:47:31.562Z,41.20
2018-11-23T11:48:37.019Z,38.87
2018-11-23T11:49:42.438Z,39.77
2018-11-23T11:50:47.882Z,38.43
2018-11-23T11:51:53.362Z,39.43
2018-11-23T11:52:58.873Z,44.50
2018-11-23T11:54:04.346Z,36.20
2018-11-23T11:55:12.841Z,56.20
2018-11-23T11:56:18.262Z,38.57
2018-11-23T11:57:23.705Z,39.40
2018-11-23T11:58:29.205Z,35.10
2018-11-23T11:59:34.663Z,40.00
2018-11-23T12:00:40.161Z,43.73
2018-11-23T12:01:45.711Z,40.60
2018-11-23T12:02:51.134Z,40.40
2018-11-23T12:03:57.194Z,38.20
2018-11-23T12:05:02.638Z,44.37
2018-11-23T12:06:08.119Z,44.53
2018-11-23T12:07:13.550Z,38.07
2018-11-23T12:08:19.078Z,39.80
2018-11-23T12:09:24.539Z,36.73
2018-11-23T12:10:29.964Z,33.83
2018-11-23T12:11:35.399Z,36.50
2018-11-23T12:12:40.903Z,38.13
2018-11-23T12:13:46.331Z,39.53
2018-11-23T12:14:51.900Z,42.47
2018-11-23T12:15:57.337Z,43.80
2018-11-23T12:17:02.850Z,41.73
2018-11-23T12:18:08.323Z,38.17
2018-11-23T12:19:13.893Z,42.37
2018-11-23T12:20:20.898Z,40.53
2018-11-23T12:21:26.309Z,37.90
2018-11-23T12:22:32.106Z,39.30
2018-11-23T12:23:37.547Z,34.53
2018-11-23T12:24:43.162Z,39.47
2018-11-23T12:25:48.656Z,38.70
2018-11-23T12:26:54.110Z,38.90
2018-11-23T12:27:59.578Z,39.60
2018-11-23T12:29:05.117Z,39.43
2018-11-23T12:30:14.434Z,41.83
2018-11-23T12:31:19.965Z,36.30
2018-11-23T12:32:25.356Z,37.20
2018-11-23T12:33:30.815Z,42.90
2018-11-23T12:34:36.301Z,40.30
2018-11-23T12:35:41.754Z,39.80
2018-11-23T12:36:48.360Z,42.30
2018-11-23T12:37:53.782Z,46.03
2018-11-23T12:38:59.202Z,45.40
2018-11-23T12:40:08.034Z,47.63
2018-11-23T12:41:13.673Z,45.23
2018-11-23T12:42:19.086Z,43.77
2018-11-23T12:43:24.588Z,45.13
2018-11-23T12:44:29.986Z,43.90
2018-11-23T12:45:35.422Z,40.20
2018-11-23T12:46:40.871Z,48.60
2018-11-23T12:47:46.360Z,44.00
2018-11-23T12:48:51.771Z,48.10
2018-11-23T12:49:57.219Z,46.23
2018-11-23T12:51:02.670Z,44.80
2018-11-23T12:52:08.164Z,40.10
2018-11-23T12:53:13.586Z,42.83
2018-11-23T12:54:19.052Z,38.27
2018-11-23T12:55:24.522Z,44.43
2018-11-23T12:56:29.950Z,49.67
2018-11-23T12:57:35.371Z,44.73
2018-11-23T12:58:40.825Z,41.63
2018-11-23T12:59:46.276Z,46.53
2018-11-23T13:00:51.786Z,44.53
2018-11-23T13:01:57.234Z,47.13
2018-11-23T13:03:04.002Z,42.33
2018-11-23T13:04:09.433Z,41.07
2018-11-23T13:05:14.839Z,40.70
2018-11-23T13:06:20.296Z,41.47
2018-11-23T13:07:25.758Z,40.03
2018-11-23T13:08:31.170Z,42.50
2018-11-23T13:09:36.588Z,42.63
2018-11-23T13:10:43.030Z,44.77
2018-11-23T13:11:47.562Z,41.03
2018-11-23T13:12:53.466Z,44.40
2018-11-23T13:13:58.942Z,41.50
2018-11-23T13:15:04.562Z,39.67
2018-11-23T13:16:10.004Z,38.87
2018-11-23T13:17:15.511Z,40.90
2018-11-23T13:18:21.086Z,38.40
2018-11-23T13:19:26.614Z,40.20
2018-11-23T13:20:32.079Z,43.67
2018-11-23T13:21:37.475Z,43.70
2018-11-23T13:22:42.967Z,40.20
2018-11-23T13:23:48.486Z,39.13
2018-11-23T13:24:53.951Z,46.93
2018-11-23T13:25:59.379Z,59.67
2018-11-23T13:27:04.901Z,43.30
2018-11-23T13:28:10.314Z,43.70
2018-11-23T13:29:16.428Z,42.63
2018-11-23T13:30:23.244Z,44.17
2018-11-23T13:31:28.664Z,46.63
2018-11-23T13:32:34.108Z,40.60
2018-11-23T13:33:39.563Z,41.87
2018-11-23T13:34:45.135Z,47.07
2018-11-23T13:35:50.596Z,43.07
2018-11-23T13:36:56.060Z,39.10
2018-11-23T13:38:01.485Z,40.93
2018-11-23T13:39:08.556Z,42.47
2018-11-23T13:40:16.347Z,45.60
2018-11-23T13:41:21.855Z,41.70
2018-11-23T13:42:27.353Z,40.90
2018-11-23T13:43:32.800Z,48.83
2018-11-23T13:44:38.446Z,38.13
2018-11-23T13:45:43.882Z,43.70
2018-11-23T13:46:49.335Z,41.00
2018-11-23T13:47:54.848Z,48.03
2018-11-23T13:49:00.315Z,46.73
2018-11-23T13:50:07.758Z,44.80
2018-11-23T13:51:13.222Z,49.60
2018-11-23T13:52:18.688Z,42.67
2018-11-23T13:53:24.126Z,45.83
2018-11-23T13:54:29.583Z,40.33
2018-11-23T13:55:34.973Z,47.93
2018-11-23T13:56:40.478Z,48.27
2018-11-23T13:57:45.911Z,36.20
2018-11-23T13:58:53.228Z,48.80
2018-11-23T13:59:58.877Z,45.37
2018-11-23T14:01:04.594Z,46.13
2018-11-23T14:02:10.057Z,42.47
2018-11-23T14:03:15.989Z,38.67
2018-11-23T14:04:21.842Z,44.20
2018-11-23T14:05:28.942Z,52.13
2018-11-23T14:06:34.865Z,45.23
2018-11-23T14:07:42.371Z,42.07